Aviation Digital Data Service (ADDS)

Output produced by METARs form (0431 UTC 23 October 2014)
found at http://www.aviationweather.gov/adds/metars/
 
METAR text: KSBP 230356Z AUTO 16004KT 10SM CLR 18/10 A2996 RMK AO2 SLP145 T01830100
Conditions at: KSBP (SAN LUIS OBISPO , CA, US) observed 0356 UTC 23 October 2014
Temperature: 18.3°C (65°F)
Dewpoint: 10.0°C (50°F) [RH = 58%]
Pressure (altimeter): 29.96 inches Hg (1014.6 mb)
[Sea-level pressure: 1014.5 mb]
Winds: from the SSE (160 degrees) at 5 MPH (4 knots; 2.1 m/s)
Visibility: 10 or more miles (16+ km)
Ceiling: at least 12,000 feet AGL
Clouds: sky clear below 12,000 feet AGL
Weather: automated observation with no human augmentation;
there may or may not be significant weather present at this time

METAR text: KSBP 230256Z 31010KT 10SM CLR 18/11 A2996 RMK AO2 SLP142 T01830106 53014
Conditions at: KSBP (SAN LUIS OBISPO , CA, US) observed 0256 UTC 23 October 2014
Temperature: 18.3°C (65°F)
Dewpoint: 10.6°C (51°F) [RH = 61%]
Pressure (altimeter): 29.96 inches Hg (1014.6 mb)
[Sea-level pressure: 1014.2 mb]
Winds: from the NW (310 degrees) at 12 MPH (10 knots; 5.2 m/s)
Visibility: 10 or more miles (16+ km)
Ceiling: at least 12,000 feet AGL
Clouds: sky clear below 12,000 feet AGL
Weather: no significant weather observed at this time

METAR text: KSBP 230156Z 32015KT 10SM CLR 19/08 A2993 RMK AO2 SLP134 T01940078
Conditions at: KSBP (SAN LUIS OBISPO , CA, US) observed 0156 UTC 23 October 2014
Temperature: 19.4°C (67°F)
Dewpoint: 7.8°C (46°F) [RH = 47%]
Pressure (altimeter): 29.93 inches Hg (1013.6 mb)
[Sea-level pressure: 1013.4 mb]
Winds: from the NW (320 degrees) at 17 MPH (15 knots; 7.8 m/s)
Visibility: 10 or more miles (16+ km)
Ceiling: at least 12,000 feet AGL
Clouds: sky clear below 12,000 feet AGL
Weather: no significant weather observed at this time

METAR text: KSBP 230056Z 31012KT 10SM CLR 22/06 A2992 RMK AO2 SLP128 T02170061
Conditions at: KSBP (SAN LUIS OBISPO , CA, US) observed 0056 UTC 23 October 2014
Temperature: 21.7°C (71°F)
Dewpoint: 6.1°C (43°F) [RH = 36%]
Pressure (altimeter): 29.92 inches Hg (1013.3 mb)
[Sea-level pressure: 1012.8 mb]
Winds: from the NW (310 degrees) at 14 MPH (12 knots; 6.2 m/s)
Visibility: 10 or more miles (16+ km)
Ceiling: at least 12,000 feet AGL
Clouds: sky clear below 12,000 feet AGL
Weather: no significant weather observed at this time

METAR text: KSBP 222356Z 31017KT 10SM CLR 24/07 A2992 RMK AO2 SLP128 T02390067 10272 20233 56008
Conditions at: KSBP (SAN LUIS OBISPO , CA, US) observed 2356 UTC 22 October 2014
Temperature: 23.9°C (75°F)
Dewpoint: 6.7°C (44°F) [RH = 33%]
Pressure (altimeter): 29.92 inches Hg (1013.3 mb)
[Sea-level pressure: 1012.8 mb]
Winds: from the NW (310 degrees) at 20 MPH (17 knots; 8.8 m/s)
Visibility: 10 or more miles (16+ km)
Ceiling: at least 12,000 feet AGL
Clouds: sky clear below 12,000 feet AGL
Weather: no significant weather observed at this time

METAR text: KSBP 222256Z 31017KT 10SM CLR 26/07 A2992 RMK AO2 SLP128 T02560067
Conditions at: KSBP (SAN LUIS OBISPO , CA, US) observed 2256 UTC 22 October 2014
Temperature: 25.6°C (78°F)
Dewpoint: 6.7°C (44°F) [RH = 30%]
Pressure (altimeter): 29.92 inches Hg (1013.3 mb)
[Sea-level pressure: 1012.8 mb]
Winds: from the NW (310 degrees) at 20 MPH (17 knots; 8.8 m/s)
Visibility: 10 or more miles (16+ km)
Ceiling: at least 12,000 feet AGL
Clouds: sky clear below 12,000 feet AGL
Weather: no significant weather observed at this time

METAR text: KSBP 222156Z AUTO 31016KT 10SM CLR 27/06 A2992 RMK AO2 SLP129 T02670061 TSNO
Conditions at: KSBP (SAN LUIS OBISPO , CA, US) observed 2156 UTC 22 October 2014
Temperature: 26.7°C (80°F)
Dewpoint: 6.1°C (43°F) [RH = 27%]
Pressure (altimeter): 29.92 inches Hg (1013.3 mb)
[Sea-level pressure: 1012.9 mb]
Winds: from the NW (310 degrees) at 18 MPH (16 knots; 8.3 m/s)
Visibility: 10 or more miles (16+ km)
Ceiling: at least 12,000 feet AGL
Clouds: sky clear below 12,000 feet AGL
Weather: automated observation with no human augmentation;
there may or may not be significant weather present at this time

METAR text: KSBP 222056Z 31019KT 10SM CLR 26/08 A2994 RMK AO2 SLP136 T02560078 58017
Conditions at: KSBP (SAN LUIS OBISPO , CA, US) observed 2056 UTC 22 October 2014
Temperature: 25.6°C (78°F)
Dewpoint: 7.8°C (46°F) [RH = 32%]
Pressure (altimeter): 29.94 inches Hg (1014.0 mb)
[Sea-level pressure: 1013.6 mb]
Winds: from the NW (310 degrees) at 22 MPH (19 knots; 9.9 m/s)
Visibility: 10 or more miles (16+ km)
Ceiling: at least 12,000 feet AGL
Clouds: sky clear below 12,000 feet AGL
Weather: no significant weather observed at this time